Barry, Texas
Current Conditions -  °F | °C
As of 9:07 AM on Friday 19 Dec 2014 (Local Time) from KCRS Reporting Station
Light Rain Light Rain  
Wind Chill: 43°   Ceiling: 400
Heat Index: 48°   Visibility: 3mi
Dew Point: 45°   Wind: 13mph
Humidity: 89%   Direction: 70°ENE
Pressure: 30.14"   Gusts: NA
Location:  32.1°N, 96.64°W
Report Text: KCRS 191507Z AUTO 07011KT 3SM -RA BR OVC004 09/07 A3014 RMK AO2 P0000 T00890072
Loading
Personal Weather Stations






























Interactive Weather Map New forecast layout! Learn more

10-Day Weather Forecast

Advertisements
Track Severe Weather on mobile